Time;durP1;ratioP1;P1;durP2;ratioP2;P2;SDS_P1;SDS_P2;PMS_P1;PMS_P2;Temp;Humidity;BMP_temperature;BMP_pressure;BME280_temperature;BME280_humidity;BME280_pressure;Samples;Min_cycle;Max_cycle;Signal;HPM_P1;HPM_P2
2022/12/05 00:01:21;;;;;;;41.83;21.90;;;18.20;43.90;;;;;;5047105;28;20045;-56
2022/12/05 00:03:52;;;;;;;41.15;22.65;;;18.20;44.00;;;;;;5041543;28;20091;-57
2022/12/05 00:06:20;;;;;;;42.45;21.23;;;18.20;44.00;;;;;;5040234;28;20610;-58
2022/12/05 00:08:48;;;;;;;37.65;20.88;;;18.10;43.90;;;;;;5040445;28;20128;-58
2022/12/05 00:11:17;;;;;;;35.33;20.38;;;18.10;44.00;;;;;;5026230;28;20045;-58
2022/12/05 00:13:46;;;;;;;34.78;18.02;;;18.10;44.00;;;;;;5026897;28;20124;-58
2022/12/05 00:16:16;;;;;;;34.65;18.33;;;18.10;44.00;;;;;;5026964;28;20470;-58
2022/12/05 00:18:43;;;;;;;32.72;18.63;;;18.10;44.00;;;;;;5034812;28;20048;-59
2022/12/05 00:21:16;;;;;;;29.77;16.30;;;18.10;44.10;;;;;;5046604;28;20048;-58
2022/12/05 00:23:43;;;;;;;23.73;15.30;;;18.10;44.00;;;;;;5043978;28;20604;-58
2022/12/05 00:26:11;;;;;;;24.15;13.30;;;18.10;44.10;;;;;;5026598;28;20069;-58
2022/12/05 00:28:39;;;;;;;25.30;13.90;;;18.10;44.10;;;;;;5032236;28;20095;-57
2022/12/05 00:31:07;;;;;;;25.88;12.75;;;18.10;44.10;;;;;;5045474;28;20045;-58
2022/12/05 00:33:34;;;;;;;22.60;14.45;;;18.10;44.10;;;;;;5046171;28;20056;-57
2022/12/05 00:36:03;;;;;;;25.00;13.13;;;18.10;44.10;;;;;;5046899;28;20507;-57
2022/12/05 00:38:32;;;;;;;25.38;12.65;;;18.10;44.10;;;;;;5046638;28;20072;-58
2022/12/05 00:41:02;;;;;;;22.00;11.93;;;18.10;44.10;;;;;;5044002;28;20036;-57
2022/12/05 00:43:29;;;;;;;20.02;12.13;;;18.10;44.10;;;;;;5046515;28;20087;-58
2022/12/05 00:45:56;;;;;;;17.35;10.45;;;18.10;44.00;;;;;;5046600;28;20148;-56
2022/12/05 00:48:23;;;;;;;20.88;11.15;;;18.00;44.00;;;;;;5046808;28;20572;-57
2022/12/05 00:50:50;;;;;;;16.80;9.82;;;18.00;44.00;;;;;;5046718;28;20040;-58
2022/12/05 00:53:17;;;;;;;18.35;11.55;;;18.00;44.00;;;;;;5046271;28;20088;-58
2022/12/05 00:55:46;;;;;;;14.07;8.80;;;18.00;44.00;;;;;;5047019;28;20041;-58
2022/12/05 00:58:13;;;;;;;17.65;9.00;;;18.00;44.00;;;;;;5049047;28;20051;-57
2022/12/05 01:00:40;;;;;;;15.05;9.00;;;18.00;44.00;;;;;;5050540;28;20133;-57
2022/12/05 01:03:07;;;;;;;15.05;8.57;;;18.00;44.00;;;;;;5050427;28;20128;-56
2022/12/05 01:05:34;;;;;;;17.20;7.78;;;18.00;44.00;;;;;;5050653;28;20055;-57
2022/12/05 01:08:01;;;;;;;12.23;7.38;;;18.00;44.00;;;;;;5049926;28;20129;-57
2022/12/05 01:10:28;;;;;;;13.57;8.32;;;18.00;44.00;;;;;;5048894;28;20048;-58
2022/12/05 01:12:57;;;;;;;13.00;7.78;;;18.00;44.00;;;;;;5043700;28;20103;-60
2022/12/05 01:15:24;;;;;;;12.32;6.95;;;18.00;44.00;;;;;;5030369;28;20482;-59
2022/12/05 01:17:51;;;;;;;12.13;7.47;;;18.00;44.00;;;;;;5031035;28;20088;-58
2022/12/05 01:20:19;;;;;;;9.65;6.78;;;18.00;44.00;;;;;;5050127;28;20045;-56
2022/12/05 01:22:46;;;;;;;10.77;6.55;;;18.00;44.00;;;;;;5049840;28;20147;-56
2022/12/05 01:25:13;;;;;;;10.90;6.50;;;18.00;44.00;;;;;;5049954;28;20132;-57
2022/12/05 01:27:40;;;;;;;10.57;7.22;;;18.00;44.00;;;;;;5050006;28;20433;-58
2022/12/05 01:30:10;;;;;;;10.23;5.68;;;18.00;44.10;;;;;;5049236;28;20051;-57
2022/12/05 01:32:37;;;;;;;11.13;6.60;;;18.00;44.10;;;;;;5049405;28;20428;-57
2022/12/05 01:35:05;;;;;;;8.60;5.13;;;18.00;44.00;;;;;;5049942;28;20524;-59
2022/12/05 01:37:32;;;;;;;9.30;5.93;;;18.00;44.10;;;;;;5049302;28;20056;-58
2022/12/05 01:40:00;;;;;;;8.75;5.85;;;18.00;44.10;;;;;;5049686;28;20048;-56
2022/12/05 01:42:27;;;;;;;9.13;5.70;;;18.00;44.70;;;;;;5049736;28;20049;-57
2022/12/05 01:45:14;;;;;;;9.20;6.00;;;18.00;44.10;;;;;;5049599;28;20041;-57
2022/12/05 01:47:41;;;;;;;8.30;5.60;;;18.00;44.10;;;;;;5049836;28;20052;-52
2022/12/05 01:50:10;;;;;;;7.68;5.15;;;18.00;44.20;;;;;;5043041;28;20589;-55
2022/12/05 01:52:38;;;;;;;7.00;3.95;;;18.00;44.30;;;;;;5049110;28;20049;-55
2022/12/05 01:55:10;;;;;;;7.47;4.35;;;18.00;44.30;;;;;;5049720;28;20716;-57
2022/12/05 01:57:38;;;;;;;7.20;4.80;;;18.00;44.30;;;;;;5049825;28;20063;-58
2022/12/05 02:00:11;;;;;;;9.98;4.85;;;18.00;44.90;;;;;;5049003;28;20560;-54
2022/12/05 02:02:44;;;;;;;7.45;5.85;;;18.00;44.30;;;;;;5049069;28;20044;-56
2022/12/05 02:05:16;;;;;;;8.57;4.85;;;18.00;44.30;;;;;;5033692;28;20081;-53
2022/12/05 02:07:43;;;;;;;6.38;4.05;;;18.00;44.30;;;;;;5029472;28;20042;-58
2022/12/05 02:10:11;;;;;;;7.03;4.70;;;18.00;44.40;;;;;;5028012;28;20047;-56
2022/12/05 02:12:41;;;;;;;8.23;5.20;;;18.00;44.30;;;;;;5027603;28;20049;-58
2022/12/05 02:15:34;;;;;;;7.60;4.53;;;18.00;44.40;;;;;;5029244;28;20068;-56
2022/12/05 02:18:18;;;;;;;5.88;3.55;;;18.00;44.40;;;;;;5034227;28;20099;-57
2022/12/05 02:21:00;;;;;;;4.72;3.83;;;18.00;44.60;;;;;;5033832;28;20497;-57
2022/12/05 02:23:59;;;;;;;8.20;4.38;;;18.00;45.30;;;;;;5029037;28;20701;-56
2022/12/05 02:27:00;;;;;;;6.93;4.18;;;18.00;44.70;;;;;;5028936;28;20052;-58
2022/12/05 02:29:53;;;;;;;8.18;4.68;;;18.00;44.70;;;;;;4986297;28;20189;-58
2022/12/05 02:32:29;;;;;;;7.50;3.95;;;18.00;44.80;;;;;;4991285;28;20542;-57
2022/12/05 02:35:03;;;;;;;7.80;4.75;;;17.90;44.90;;;;;;5005760;28;20054;-56
2022/12/05 02:37:38;;;;;;;13.15;5.55;;;17.90;44.90;;;;;;5006150;28;20045;-56
2022/12/05 02:40:14;;;;;;;4.80;3.83;;;17.90;44.90;;;;;;5003077;28;20105;-56
2022/12/05 02:42:46;;;;;;;8.20;3.90;;;18.00;44.90;;;;;;5006232;28;20054;-57
2022/12/05 02:45:18;;;;;;;8.35;3.55;;;17.90;44.90;;;;;;5005818;28;20511;-56
2022/12/05 02:47:47;;;;;;;6.20;3.97;;;18.00;45.00;;;;;;5005991;28;20046;-55
2022/12/05 02:50:18;;;;;;;4.90;3.72;;;17.90;45.00;;;;;;5005659;28;20072;-56
2022/12/05 02:52:48;;;;;;;6.38;4.45;;;17.90;45.20;;;;;;5006097;28;20131;-56
2022/12/05 02:55:17;;;;;;;5.55;4.40;;;17.90;45.10;;;;;;5005987;28;20041;-57
2022/12/05 02:57:48;;;;;;;4.55;3.53;;;17.90;45.10;;;;;;5005677;28;20133;-55
2022/12/05 03:00:17;;;;;;;6.07;4.88;;;18.00;45.20;;;;;;5005678;28;20052;-56
2022/12/05 03:02:47;;;;;;;7.03;4.57;;;18.00;45.20;;;;;;5005768;28;20049;-56
2022/12/05 03:05:22;;;;;;;4.95;3.72;;;17.90;45.20;;;;;;5028371;28;20060;-57
2022/12/05 03:07:52;;;;;;;7.53;4.05;;;18.00;45.30;;;;;;5048112;28;20040;-56
2022/12/05 03:10:23;;;;;;;6.97;4.43;;;17.90;45.30;;;;;;5047803;28;20049;-56
2022/12/05 03:12:55;;;;;;;4.10;3.50;;;18.00;45.90;;;;;;5042098;28;20130;-56
2022/12/05 03:15:28;;;;;;;8.25;4.78;;;17.90;45.30;;;;;;5027809;28;20469;-55
2022/12/05 03:18:03;;;;;;;6.68;3.28;;;18.00;45.30;;;;;;5028975;28;20418;-58
2022/12/05 03:20:36;;;;;;;6.40;4.35;;;17.90;45.30;;;;;;5047411;28;20885;-59
2022/12/05 03:23:07;;;;;;;6.65;3.25;;;18.00;45.40;;;;;;5047896;28;20524;-58
2022/12/05 03:25:46;;;;;;;6.97;4.72;;;17.90;45.40;;;;;;5047992;28;20037;-59
2022/12/05 03:28:21;;;;;;;5.50;3.88;;;17.90;45.50;;;;;;5043296;28;20506;-58
2022/12/05 03:30:52;;;;;;;4.50;3.22;;;17.90;45.50;;;;;;5047429;28;20128;-59
2022/12/05 03:33:23;;;;;;;3.72;3.00;;;17.90;45.50;;;;;;5047106;28;20114;-59
2022/12/05 03:35:59;;;;;;;10.10;4.20;;;17.90;45.60;;;;;;5047620;28;20037;-59
2022/12/05 03:38:32;;;;;;;4.15;3.50;;;17.90;45.60;;;;;;5047564;28;20045;-60
2022/12/05 03:41:08;;;;;;;6.35;4.03;;;17.90;45.60;;;;;;5047504;28;20045;-58
2022/12/05 03:43:45;;;;;;;4.05;2.65;;;17.90;45.60;;;;;;5047347;28;20424;-58
2022/12/05 03:46:18;;;;;;;5.15;3.25;;;17.90;45.60;;;;;;5047283;28;20073;-59
2022/12/05 03:48:54;;;;;;;5.68;4.05;;;17.90;45.60;;;;;;5047244;28;20581;-57
2022/12/05 03:51:25;;;;;;;4.22;2.72;;;17.90;45.60;;;;;;5046988;28;20048;-58
2022/12/05 03:53:57;;;;;;;4.22;3.03;;;17.90;45.60;;;;;;5047142;28;20144;-57
2022/12/05 03:56:31;;;;;;;5.07;3.33;;;17.90;45.60;;;;;;5047262;28;20489;-56
2022/12/05 03:59:05;;;;;;;4.43;2.92;;;17.90;45.70;;;;;;5046958;28;20049;-59
2022/12/05 04:01:35;;;;;;;4.13;2.80;;;17.90;45.70;;;;;;5046952;28;20064;-59
2022/12/05 04:04:08;;;;;;;5.28;3.00;;;17.90;45.70;;;;;;5047097;28;20045;-59
2022/12/05 04:06:38;;;;;;;5.75;2.72;;;17.90;45.70;;;;;;5047238;28;20777;-56
2022/12/05 04:09:10;;;;;;;5.97;4.47;;;17.90;45.70;;;;;;5047189;28;20048;-57
2022/12/05 04:11:42;;;;;;;12.10;6.32;;;17.90;45.80;;;;;;5045906;28;20152;-58
2022/12/05 04:14:13;;;;;;;15.05;8.65;;;17.90;45.80;;;;;;5034561;28;20084;-57
2022/12/05 04:17:05;;;;;;;27.95;13.98;;;17.90;45.80;;;;;;5025280;28;20490;-56
2022/12/05 04:22:30;;;;;;;;;;;18.00;45.80;;;;;;5035025;28;20052;-58
2022/12/05 04:27:52;;;;;;;46.22;21.27;;;17.90;45.80;;;;;;5044458;28;20056;-59
2022/12/05 04:30:21;;;;;;;39.88;19.20;;;17.90;45.80;;;;;;5027239;28;20049;-58
2022/12/05 04:32:57;;;;;;;41.25;19.75;;;17.90;45.80;;;;;;5034813;28;20057;-57
2022/12/05 04:35:28;;;;;;;35.70;19.83;;;17.90;45.70;;;;;;5048348;28;20187;-58
2022/12/05 04:38:00;;;;;;;34.90;19.60;;;17.90;45.70;;;;;;5048337;28;20071;-58
2022/12/05 04:40:33;;;;;;;34.85;18.98;;;17.90;45.70;;;;;;5045053;28;20056;-57
2022/12/05 04:43:04;;;;;;;34.63;18.17;;;17.90;45.70;;;;;;5048020;28;20128;-58
2022/12/05 04:45:34;;;;;;;31.55;16.92;;;17.90;45.70;;;;;;5047469;28;20136;-57
2022/12/05 04:48:07;;;;;;;32.33;17.40;;;17.90;46.20;;;;;;5047825;28;20095;-58
2022/12/05 04:50:38;;;;;;;31.85;18.05;;;17.90;45.70;;;;;;5047758;28;20491;-58
2022/12/05 04:53:06;;;;;;;27.35;15.35;;;17.90;45.70;;;;;;5047638;28;20623;-58
2022/12/05 04:55:36;;;;;;;31.88;16.35;;;17.90;45.70;;;;;;5047789;28;20555;-58
2022/12/05 04:58:07;;;;;;;30.35;16.23;;;17.90;45.70;;;;;;5047906;28;20103;-57
2022/12/05 05:00:45;;;;;;;26.58;14.07;;;17.90;45.70;;;;;;5046699;28;20038;-58
2022/12/05 05:03:18;;;;;;;25.90;15.27;;;17.90;45.70;;;;;;5042403;28;20041;-58
2022/12/05 05:05:48;;;;;;;30.08;15.82;;;17.90;45.60;;;;;;5050380;28;20045;-59
2022/12/05 05:08:20;;;;;;;24.77;13.02;;;18.00;45.60;;;;;;5050418;28;20879;-58
2022/12/05 05:10:54;;;;;;;23.55;12.75;;;18.00;45.60;;;;;;5050253;28;20284;-60
2022/12/05 05:13:22;;;;;;;23.73;12.35;;;17.90;45.50;;;;;;5050790;28;20512;-58
2022/12/05 05:15:49;;;;;;;20.95;12.30;;;17.90;45.50;;;;;;5064198;28;20064;-58
2022/12/05 05:18:17;;;;;;;17.23;10.52;;;17.90;45.50;;;;;;5033102;28;20029;-58
2022/12/05 05:20:44;;;;;;;20.75;11.30;;;17.90;45.50;;;;;;5049896;28;20808;-59
2022/12/05 05:23:12;;;;;;;24.20;11.77;;;17.90;45.50;;;;;;5049848;28;20075;-57
2022/12/05 05:25:39;;;;;;;20.63;10.93;;;18.00;45.50;;;;;;5050027;28;20064;-57
2022/12/05 05:28:06;;;;;;;20.15;11.50;;;17.90;45.40;;;;;;5049764;28;20571;-58
2022/12/05 05:30:33;;;;;;;19.08;9.82;;;17.90;45.40;;;;;;5049698;28;20078;-57
2022/12/05 05:33:00;;;;;;;20.77;10.90;;;17.90;45.40;;;;;;5049162;28;20143;-56
2022/12/05 05:35:29;;;;;;;16.70;9.43;;;18.00;45.40;;;;;;5049802;28;20048;-58
2022/12/05 05:37:56;;;;;;;20.38;11.98;;;18.00;45.50;;;;;;5048753;28;20095;-58
2022/12/05 05:40:23;;;;;;;15.40;9.23;;;18.00;45.50;;;;;;5049972;28;20045;-59
2022/12/05 05:42:50;;;;;;;16.00;9.48;;;18.00;45.50;;;;;;5049314;28;20820;-58
2022/12/05 05:45:18;;;;;;;16.75;9.07;;;18.00;45.50;;;;;;5049423;28;20381;-57
2022/12/05 05:47:47;;;;;;;13.20;7.00;;;18.00;45.60;;;;;;5049707;28;20072;-57
2022/12/05 05:50:15;;;;;;;13.98;8.05;;;18.00;45.60;;;;;;5049687;28;20068;-58
2022/12/05 05:52:43;;;;;;;12.45;7.15;;;18.00;45.70;;;;;;5049585;28;20072;-57
2022/12/05 05:55:10;;;;;;;12.68;9.05;;;18.00;45.70;;;;;;5049360;28;20041;-59
2022/12/05 05:57:37;;;;;;;11.52;7.20;;;18.00;45.70;;;;;;5047454;28;20059;-60
2022/12/05 06:00:06;;;;;;;14.05;7.18;;;18.00;45.70;;;;;;5049150;28;20571;-57
2022/12/05 06:02:34;;;;;;;10.60;6.28;;;18.00;45.80;;;;;;5049440;28;20052;-59
2022/12/05 06:05:01;;;;;;;9.23;6.30;;;18.00;45.80;;;;;;5049305;28;20048;-60
2022/12/05 06:07:28;;;;;;;10.25;5.97;;;18.00;45.70;;;;;;5049351;28;20151;-58
2022/12/05 06:09:57;;;;;;;10.23;5.25;;;18.00;45.70;;;;;;5049249;28;20045;-58
2022/12/05 06:12:24;;;;;;;7.70;4.75;;;18.00;45.60;;;;;;5049171;28;20045;-58
2022/12/05 06:14:51;;;;;;;9.38;4.97;;;18.00;45.60;;;;;;5047803;28;20168;-59
2022/12/05 06:17:18;;;;;;;14.02;5.65;;;18.00;45.60;;;;;;5039635;28;20045;-58
2022/12/05 06:19:46;;;;;;;11.80;5.85;;;18.00;45.60;;;;;;5045702;28;20053;-56
2022/12/05 06:22:13;;;;;;;8.38;5.95;;;18.00;45.50;;;;;;5048883;28;20041;-58
2022/12/05 06:24:40;;;;;;;10.10;4.50;;;18.00;45.50;;;;;;5048825;28;20124;-57
2022/12/05 06:27:08;;;;;;;8.80;4.63;;;18.10;45.60;;;;;;5044145;28;20051;-61
2022/12/05 06:29:35;;;;;;;7.10;3.85;;;18.00;45.60;;;;;;5054130;28;20094;-61
2022/12/05 06:32:03;;;;;;;6.10;4.28;;;18.10;45.70;;;;;;5052529;28;20047;-60
2022/12/05 06:34:31;;;;;;;4.50;3.15;;;18.30;45.90;;;;;;5044220;28;20105;-61
2022/12/05 06:36:59;;;;;;;6.28;4.15;;;18.40;45.70;;;;;;5057498;28;20839;-61
2022/12/05 06:39:26;;;;;;;8.02;4.30;;;18.60;45.70;;;;;;5040364;28;20099;-61
2022/12/05 06:41:53;;;;;;;10.13;3.95;;;18.80;45.60;;;;;;5045983;28;20049;-60
2022/12/05 06:44:23;;;;;;;5.57;3.42;;;18.90;45.40;;;;;;5062368;28;20032;-61
2022/12/05 06:46:50;;;;;;;4.90;3.10;;;19.10;45.30;;;;;;5048072;28;20060;-60
2022/12/05 06:49:17;;;;;;;5.82;3.28;;;19.20;45.20;;;;;;5047906;28;20045;-59
2022/12/05 06:51:45;;;;;;;4.95;3.72;;;19.40;45.10;;;;;;5047472;28;20041;-60
2022/12/05 06:54:12;;;;;;;7.18;3.78;;;19.50;45.00;;;;;;5047609;28;20052;-62
2022/12/05 06:56:39;;;;;;;3.58;2.85;;;19.60;44.80;;;;;;5058398;28;20041;-61
2022/12/05 06:59:06;;;;;;;5.68;2.58;;;19.80;44.70;;;;;;5046645;28;20497;-62
2022/12/05 07:01:40;;;;;;;7.90;3.35;;;19.90;44.50;;;;;;5054618;28;20132;-62
2022/12/05 07:04:12;;;;;;;3.17;2.05;;;20.00;45.00;;;;;;5047526;28;20044;-59
2022/12/05 07:06:40;;;;;;;3.83;2.47;;;20.10;44.30;;;;;;5047712;28;20106;-60
2022/12/05 07:09:07;;;;;;;5.25;2.67;;;20.30;44.20;;;;;;5047321;28;20135;-57
2022/12/05 07:11:35;;;;;;;3.97;2.10;;;20.40;44.00;;;;;;5047354;28;20124;-58
2022/12/05 07:14:03;;;;;;;8.50;2.95;;;20.50;43.90;;;;;;5047532;28;20052;-60
2022/12/05 07:16:30;;;;;;;4.35;2.58;;;20.60;43.80;;;;;;5047606;28;20053;-59
2022/12/05 07:18:58;;;;;;;5.18;2.65;;;20.70;43.70;;;;;;5047829;28;20149;-59
2022/12/05 07:21:25;;;;;;;3.08;2.03;;;20.80;44.00;;;;;;5047120;28;20049;-59
2022/12/05 07:23:53;;;;;;;4.20;2.42;;;20.90;43.40;;;;;;5043909;28;20148;-60
2022/12/05 07:26:21;;;;;;;4.32;2.80;;;21.00;43.20;;;;;;5045077;28;20064;-59
2022/12/05 07:28:50;;;;;;;3.50;2.28;;;21.10;43.80;;;;;;5047466;28;20461;-60
2022/12/05 07:31:20;;;;;;;3.40;2.35;;;21.20;43.10;;;;;;5046457;28;20045;-61
2022/12/05 07:33:48;;;;;;;6.30;2.30;;;21.30;43.00;;;;;;5049157;28;20056;-61
2022/12/05 07:36:18;;;;;;;3.05;2.15;;;21.40;42.90;;;;;;5047619;28;20045;-61
2022/12/05 07:38:45;;;;;;;3.08;2.70;;;21.50;42.80;;;;;;5043753;28;20102;-61
2022/12/05 07:41:17;;;;;;;6.07;2.97;;;21.60;42.70;;;;;;5046882;28;20144;-59
2022/12/05 07:43:44;;;;;;;8.55;4.30;;;21.70;42.60;;;;;;5047185;28;20068;-60
2022/12/05 07:46:11;;;;;;;6.13;3.38;;;21.70;42.50;;;;;;5046187;28;20044;-60
2022/12/05 07:48:38;;;;;;;5.35;3.10;;;21.80;42.40;;;;;;5046951;28;20037;-59
2022/12/05 07:51:08;;;;;;;4.55;3.45;;;21.80;42.30;;;;;;5045689;28;20048;-60
2022/12/05 07:53:37;;;;;;;3.80;3.33;;;21.90;42.30;;;;;;5046490;28;20155;-60
2022/12/05 07:56:07;;;;;;;3.47;2.92;;;22.00;42.20;;;;;;5046291;28;20037;-60
2022/12/05 07:58:35;;;;;;;4.78;3.30;;;22.00;42.00;;;;;;5046267;28;20497;-61
2022/12/05 08:01:06;;;;;;;6.32;3.40;;;22.20;42.00;;;;;;5047040;28;20861;-60
2022/12/05 08:03:34;;;;;;;4.28;3.15;;;22.20;41.80;;;;;;5045339;28;20064;-60
2022/12/05 08:06:02;;;;;;;4.88;3.97;;;22.30;41.80;;;;;;5046399;28;20124;-60
2022/12/05 08:08:29;;;;;;;4.10;2.75;;;22.30;41.80;;;;;;5045843;28;20135;-59
2022/12/05 08:11:03;;;;;;;4.78;3.10;;;22.40;41.70;;;;;;5044273;28;20163;-60
2022/12/05 08:13:31;;;;;;;3.58;3.20;;;22.50;41.70;;;;;;5046568;28;20049;-60
2022/12/05 08:16:02;;;;;;;2.60;2.38;;;22.50;42.20;;;;;;5046735;28;20132;-60
2022/12/05 08:18:29;;;;;;;3.03;2.72;;;22.60;41.50;;;;;;5045170;28;20424;-59
2022/12/05 08:21:00;;;;;;;4.18;2.83;;;22.60;41.40;;;;;;5045141;28;20075;-65
2022/12/05 08:23:29;;;;;;;8.15;4.35;;;22.60;41.40;;;;;;5042848;28;20069;-62
2022/12/05 08:26:00;;;;;;;5.80;4.00;;;22.70;40.80;;;;;;5034912;28;20041;-64
2022/12/05 08:28:28;;;;;;;5.00;3.72;;;22.70;40.50;;;;;;5045329;28;20044;-62
2022/12/05 08:30:55;;;;;;;6.90;4.95;;;22.70;40.30;;;;;;5046526;28;20510;-66
2022/12/05 08:33:22;;;;;;;6.55;4.32;;;22.70;40.10;;;;;;5038679;28;20050;-69
2022/12/05 08:35:50;;;;;;;4.38;3.55;;;22.70;39.90;;;;;;5051454;28;20130;-60
2022/12/05 08:38:17;;;;;;;8.20;5.65;;;22.70;40.00;;;;;;5045028;28;20041;-62
2022/12/05 08:40:46;;;;;;;5.75;3.83;;;22.70;39.60;;;;;;5045619;28;20532;-60
2022/12/05 08:43:15;;;;;;;14.20;5.63;;;22.70;40.00;;;;;;5041271;28;20072;-62
2022/12/05 08:45:48;;;;;;;7.45;3.88;;;22.70;40.00;;;;;;5046153;28;20128;-62
2022/12/05 08:48:15;;;;;;;5.40;4.18;;;22.70;40.30;;;;;;5046600;28;20521;-64
2022/12/05 08:50:42;;;;;;;4.63;4.10;;;22.60;40.00;;;;;;5046732;28;20512;-64
2022/12/05 08:53:10;;;;;;;5.70;4.90;;;22.60;39.90;;;;;;5045881;28;20072;-64
2022/12/05 08:55:37;;;;;;;4.85;4.35;;;22.60;39.90;;;;;;5046426;28;20055;-63
2022/12/05 08:58:04;;;;;;;5.90;4.30;;;22.60;39.80;;;;;;5044580;28;20134;-64
2022/12/05 09:00:32;;;;;;;4.20;3.15;;;22.60;39.50;;;;;;5044653;28;20505;-65
2022/12/05 09:02:59;;;;;;;4.47;3.83;;;22.60;39.60;;;;;;5043440;28;20051;-65
2022/12/05 09:05:27;;;;;;;5.07;4.45;;;22.60;39.90;;;;;;5036223;28;20045;-66
2022/12/05 09:07:54;;;;;;;4.43;3.58;;;22.50;39.60;;;;;;5044932;28;20559;-62
2022/12/05 09:10:21;;;;;;;5.97;4.45;;;22.50;39.70;;;;;;5045870;28;20049;-59
2022/12/05 09:12:50;;;;;;;6.05;3.80;;;22.50;39.70;;;;;;5044657;28;20052;-61
2022/12/05 09:15:20;;;;;;;5.20;4.70;;;22.40;39.70;;;;;;5037579;28;20052;-65
2022/12/05 09:17:49;;;;;;;5.95;4.07;;;22.40;39.50;;;;;;5045347;28;20394;-65
2022/12/05 09:20:17;;;;;;;6.20;3.00;;;22.40;39.50;;;;;;5032677;28;20078;-65
2022/12/05 09:22:44;;;;;;;5.03;3.63;;;22.40;39.60;;;;;;5047874;28;20517;-68
2022/12/05 09:25:12;;;;;;;5.43;3.38;;;22.40;39.60;;;;;;5035790;28;20433;-62
2022/12/05 09:27:39;;;;;;;7.03;4.97;;;22.30;39.60;;;;;;5053682;28;20052;-60
2022/12/05 09:30:08;;;;;;;8.80;3.53;;;22.30;39.80;;;;;;5052924;28;20040;-60
2022/12/05 09:32:35;;;;;;;5.10;3.45;;;22.30;39.80;;;;;;5052796;28;20053;-63
2022/12/05 09:35:04;;;;;;;7.30;3.88;;;22.30;39.90;;;;;;5049711;28;20110;-63
2022/12/05 09:37:31;;;;;;;3.47;2.80;;;22.30;40.00;;;;;;5049559;28;20505;-61
2022/12/05 09:39:58;;;;;;;4.30;3.30;;;22.30;40.10;;;;;;5053298;28;20091;-61
2022/12/05 09:42:43;;;;;;;4.90;3.67;;;22.20;40.00;;;;;;5049189;28;20499;-62
2022/12/05 09:45:18;;;;;;;4.03;3.55;;;22.30;39.60;;;;;;5049107;28;20070;-60
2022/12/05 09:47:55;;;;;;;11.52;4.32;;;22.20;39.50;;;;;;5049427;28;20052;-65
2022/12/05 09:50:26;;;;;;;6.55;2.72;;;22.10;39.90;;;;;;5048452;28;20041;-58
2022/12/05 09:53:02;;;;;;;17.90;4.30;;;22.20;41.10;;;;;;5027933;28;20053;-59
2022/12/05 09:55:36;;;;;;;13.95;3.50;;;22.10;41.30;;;;;;5044360;28;20041;-58
2022/12/05 09:58:05;;;;;;;8.18;4.47;;;22.10;41.30;;;;;;5049431;28;20136;-58
2022/12/05 10:00:33;;;;;;;10.40;3.33;;;22.10;41.40;;;;;;5049145;28;20052;-58
2022/12/05 10:03:08;;;;;;;8.48;5.00;;;22.00;41.50;;;;;;5049218;28;20174;-58
2022/12/05 10:05:42;;;;;;;9.97;4.20;;;22.10;41.50;;;;;;5041601;28;20065;-59
2022/12/05 10:08:17;;;;;;;9.65;4.38;;;22.00;41.50;;;;;;5029103;28;20152;-57
2022/12/05 10:10:55;;;;;;;9.15;4.28;;;22.00;41.50;;;;;;5029224;28;20051;-59
2022/12/05 10:13:36;;;;;;;5.43;3.97;;;22.00;41.40;;;;;;5029129;28;20046;-58
2022/12/05 10:16:09;;;;;;;4.65;3.95;;;21.90;41.40;;;;;;5034002;28;20040;-59
2022/12/05 10:18:40;;;;;;;4.32;3.50;;;21.80;41.30;;;;;;5047336;28;20056;-58
2022/12/05 10:21:16;;;;;;;7.28;4.10;;;21.90;41.40;;;;;;5048887;28;20335;-59
2022/12/05 10:23:54;;;;;;;5.97;3.97;;;21.80;41.40;;;;;;5048893;28;20082;-59
2022/12/05 10:26:23;;;;;;;7.40;4.22;;;21.80;41.50;;;;;;5049295;28;20096;-59
2022/12/05 10:28:53;;;;;;;4.72;3.20;;;21.70;41.60;;;;;;5048726;28;20052;-59
2022/12/05 10:31:25;;;;;;;5.78;4.13;;;21.70;41.70;;;;;;5047877;28;20047;-59
2022/12/05 10:33:59;;;;;;;9.27;3.95;;;21.70;41.70;;;;;;5048084;28;20052;-58
2022/12/05 10:36:27;;;;;;;5.93;3.42;;;21.70;41.80;;;;;;5036972;28;20045;-58
2022/12/05 10:38:56;;;;;;;6.03;4.00;;;21.60;41.70;;;;;;5028828;28;20140;-58
2022/12/05 10:41:23;;;;;;;6.68;3.58;;;21.60;41.80;;;;;;5028866;28;20433;-58
2022/12/05 10:43:51;;;;;;;6.47;4.53;;;21.60;41.80;;;;;;5028634;28;20120;-59
2022/12/05 10:46:18;;;;;;;5.05;4.18;;;21.50;41.70;;;;;;5028551;28;20133;-58
2022/12/05 10:48:45;;;;;;;5.57;4.35;;;21.50;41.70;;;;;;5028313;28;20077;-59
2022/12/05 10:51:16;;;;;;;5.60;3.92;;;21.50;41.70;;;;;;5028668;28;20077;-59
2022/12/05 10:53:48;;;;;;;6.82;4.50;;;21.40;41.60;;;;;;5028442;28;20041;-60
2022/12/05 10:56:35;;;;;;;12.05;4.50;;;21.40;41.60;;;;;;5028260;28;20087;-59
2022/12/05 10:59:02;;;;;;;4.07;3.45;;;21.30;41.50;;;;;;5028627;28;20115;-59
2022/12/05 11:01:29;;;;;;;4.68;3.17;;;21.30;42.20;;;;;;5026508;28;20351;-59
2022/12/05 11:03:59;;;;;;;5.57;4.40;;;21.30;41.50;;;;;;5046128;28;20075;-58
2022/12/05 11:06:28;;;;;;;6.38;4.10;;;21.20;41.50;;;;;;5048186;28;20072;-58
2022/12/05 11:08:58;;;;;;;4.60;4.05;;;21.20;41.50;;;;;;5048215;28;20524;-58
2022/12/05 11:11:27;;;;;;;6.32;3.42;;;21.20;41.50;;;;;;5048056;28;20474;-58
2022/12/05 11:13:55;;;;;;;4.93;3.70;;;21.10;41.40;;;;;;5047839;28;20049;-58
2022/12/05 11:16:26;;;;;;;4.68;3.35;;;21.10;41.40;;;;;;5047349;28;20131;-59
2022/12/05 11:18:53;;;;;;;7.35;4.07;;;21.10;41.40;;;;;;5047905;28;20091;-58
2022/12/05 11:21:20;;;;;;;4.00;3.60;;;21.00;41.30;;;;;;5047410;28;20060;-58
2022/12/05 11:23:48;;;;;;;7.65;4.68;;;21.00;41.30;;;;;;5047662;28;20049;-59
2022/12/05 11:26:32;;;;;;;5.93;3.85;;;21.00;41.20;;;;;;5047383;28;20501;-58
2022/12/05 11:29:00;;;;;;;6.85;4.22;;;20.90;41.20;;;;;;5047686;28;20130;-59
2022/12/05 11:31:30;;;;;;;6.85;4.10;;;20.90;41.10;;;;;;5047021;28;20332;-59
2022/12/05 11:34:16;;;;;;;5.93;4.43;;;20.90;41.10;;;;;;5047436;28;20922;-58
2022/12/05 11:36:47;;;;;;;7.25;4.18;;;20.90;41.10;;;;;;5047568;28;20059;-59
2022/12/05 11:39:14;;;;;;;6.40;4.13;;;20.80;41.00;;;;;;5047542;28;20582;-59
2022/12/05 11:42:06;;;;;;;7.97;4.70;;;20.80;41.00;;;;;;5047340;28;20071;-58
2022/12/05 11:44:52;;;;;;;5.97;4.43;;;20.80;41.00;;;;;;5033888;28;20049;-58
2022/12/05 11:47:30;;;;;;;5.72;5.03;;;20.70;40.90;;;;;;5040028;28;20055;-63
2022/12/05 11:50:16;;;;;;;7.70;4.97;;;20.70;40.90;;;;;;5040688;28;20048;-63
2022/12/05 11:52:56;;;;;;;8.30;5.03;;;20.70;41.10;;;;;;5049075;28;20041;-62
2022/12/05 11:55:29;;;;;;;8.38;5.60;;;20.70;41.30;;;;;;5037968;28;20041;-61
2022/12/05 11:58:10;;;;;;;8.18;4.80;;;20.70;40.90;;;;;;5048207;28;20055;-64
2022/12/05 12:00:48;;;;;;;7.18;4.75;;;20.70;41.10;;;;;;5045793;28;20528;-66
2022/12/05 12:03:40;;;;;;;6.85;4.47;;;20.70;41.20;;;;;;5046705;28;20124;-68
2022/12/05 12:06:20;;;;;;;5.57;4.15;;;20.70;41.50;;;;;;5050197;28;20186;-69
2022/12/05 12:09:01;;;;;;;9.27;4.18;;;20.70;42.00;;;;;;5043620;28;20033;-67
2022/12/05 12:11:34;;;;;;;7.75;4.18;;;20.80;42.20;;;;;;5040114;28;20494;-67
2022/12/05 12:14:12;;;;;;;6.20;4.07;;;20.80;42.30;;;;;;5044719;28;20128;-65
2022/12/05 12:16:50;;;;;;;5.88;4.88;;;20.90;42.40;;;;;;5046670;28;20072;-69
2022/12/05 12:19:42;;;;;;;5.90;4.13;;;21.00;42.40;;;;;;5050483;28;20037;-68
2022/12/05 12:22:27;;;;;;;11.23;4.35;;;21.10;42.90;;;;;;5049028;28;20561;-66
2022/12/05 12:25:13;;;;;;;5.18;3.70;;;21.20;42.20;;;;;;5038886;28;20100;-68
2022/12/05 12:27:50;;;;;;;5.70;4.07;;;21.30;42.10;;;;;;5046629;28;20095;-62
2022/12/05 12:30:24;;;;;;;7.32;5.32;;;21.40;42.10;;;;;;5046193;28;20142;-61
2022/12/05 12:33:03;;;;;;;65.88;13.55;;;21.50;42.00;;;;;;5040755;28;20068;-62
2022/12/05 12:35:31;;;;;;;32.95;15.30;;;21.60;42.00;;;;;;5036224;28;20043;-63
2022/12/05 12:38:30;;;;;;;40.55;19.10;;;21.60;41.70;;;;;;5042469;28;20851;-63
2022/12/05 12:41:03;;;;;;;44.55;22.17;;;21.60;41.60;;;;;;5033003;28;20050;-62
2022/12/05 12:43:44;;;;;;;46.10;23.10;;;21.40;41.60;;;;;;5033157;28;20088;-62
2022/12/05 12:46:22;;;;;;;50.67;23.88;;;21.40;41.60;;;;;;5033798;28;20061;-63
2022/12/05 12:49:10;;;;;;;43.83;22.60;;;21.30;41.70;;;;;;5033565;28;20037;-64
2022/12/05 12:51:45;;;;;;;73.45;28.40;;;21.20;41.70;;;;;;5039616;28;20056;-67
2022/12/05 12:54:44;;;;;;;50.97;26.60;;;21.00;42.00;;;;;;5052849;28;20048;-62
2022/12/05 12:57:20;;;;;;;63.72;33.25;;;21.10;42.30;;;;;;5034284;28;20048;-62
2022/12/05 13:00:01;;;;;;;73.15;34.47;;;21.10;42.20;;;;;;5074181;28;20128;-67
2022/12/05 13:02:37;;;;;;;62.35;34.33;;;21.20;42.10;;;;;;5055930;28;20515;-68
2022/12/05 13:05:07;;;;;;;75.13;38.78;;;21.30;42.00;;;;;;5050820;28;20037;-67
2022/12/05 13:07:41;;;;;;;60.45;31.67;;;21.30;41.90;;;;;;5049506;28;20091;-62